Time;durP1;ratioP1;P1;durP2;ratioP2;P2;SDS_P1;SDS_P2;PMS_P1;PMS_P2;Temp;Humidity;BMP_temperature;BMP_pressure;BME280_temperature;BME280_humidity;BME280_pressure;Samples;Min_cycle;Max_cycle;Signal;HPM_P1;HPM_P2
2022/07/13 00:00:42;;;;;;;3.75;1.70;;;;;;;;;;4361730;32;20688;-83
2022/07/13 00:03:08;;;;;;;2.10;1.65;;;;;;;;;;4361425;32;20502;-84
2022/07/13 00:05:34;;;;;;;3.12;1.67;;;;;;;;;;4361481;32;20225;-84
2022/07/13 00:08:00;;;;;;;8.48;1.42;;;;;;;;;;4361254;32;20596;-85
2022/07/13 00:10:26;;;;;;;7.90;2.30;;;;;;;;;;4360913;32;20313;-85
2022/07/13 00:12:52;;;;;;;3.75;1.95;;;;;;;;;;4361364;32;20463;-85
2022/07/13 00:15:18;;;;;;;2.15;1.50;;;;;;;;;;4347505;32;20380;-84
2022/07/13 00:17:44;;;;;;;3.67;1.58;;;;;;;;;;4348329;32;20210;-85
2022/07/13 00:20:11;;;;;;;3.75;1.70;;;;;;;;;;4363315;32;20627;-91
2022/07/13 00:22:39;;;;;;;2.20;1.20;;;;;;;;;;4363423;32;20638;-84
2022/07/13 00:25:06;;;;;;;5.30;1.83;;;;;;;;;;4361175;32;20663;-85
2022/07/13 00:27:34;;;;;;;3.60;1.50;;;;;;;;;;4347909;32;20714;-85
2022/07/13 00:30:04;;;;;;;2.20;1.23;;;;;;;;;;4348330;32;20724;-84
2022/07/13 00:32:31;;;;;;;7.45;1.70;;;;;;;;;;4361632;32;20622;-86
2022/07/13 00:34:58;;;;;;;4.10;2.05;;;;;;;;;;4347826;32;20568;-93
2022/07/13 00:37:25;;;;;;;1.35;1.25;;;;;;;;;;4347907;32;20548;-86
2022/07/13 00:39:51;;;;;;;4.78;1.90;;;;;;;;;;4360361;32;20583;-86
2022/07/13 00:42:18;;;;;;;3.00;1.30;;;;;;;;;;4347307;32;20218;-84
2022/07/13 00:44:44;;;;;;;3.03;1.45;;;;;;;;;;4347116;32;20493;-84
2022/07/13 00:47:11;;;;;;;2.15;1.58;;;;;;;;;;4346951;32;20569;-84
2022/07/13 00:49:39;;;;;;;4.07;1.73;;;;;;;;;;4360875;32;20643;-84
2022/07/13 00:52:06;;;;;;;2.83;1.45;;;;;;;;;;4347368;32;20730;-84
2022/07/13 00:54:33;;;;;;;3.35;1.50;;;;;;;;;;4362759;32;20690;-84
2022/07/13 00:57:01;;;;;;;3.62;1.30;;;;;;;;;;4346777;32;20662;-84
2022/07/13 00:59:32;;;;;;;2.20;1.25;;;;;;;;;;4361967;32;20650;-84
2022/07/13 01:01:58;;;;;;;3.37;1.52;;;;;;;;;;4349977;32;20572;-83
2022/07/13 01:04:24;;;;;;;3.78;1.50;;;;;;;;;;4361618;32;20587;-85
2022/07/13 01:06:54;;;;;;;5.37;1.30;;;;;;;;;;4360144;32;20301;-86
2022/07/13 01:09:21;;;;;;;3.00;1.30;;;;;;;;;;4334520;32;20521;-84
2022/07/13 01:11:47;;;;;;;5.25;1.55;;;;;;;;;;4360395;32;20721;-83
2022/07/13 01:14:14;;;;;;;5.12;1.20;;;;;;;;;;4359228;32;20529;-85
2022/07/13 01:16:41;;;;;;;2.50;1.50;;;;;;;;;;4346520;32;20592;-84
2022/07/13 01:19:11;;;;;;;5.65;1.33;;;;;;;;;;4360402;32;20647;-84
2022/07/13 01:21:45;;;;;;;1.20;1.00;;;;;;;;;;4346732;32;20586;-83
2022/07/13 01:24:12;;;;;;;1.73;1.23;;;;;;;;;;4360231;32;20607;-85
2022/07/13 01:26:39;;;;;;;2.17;1.67;;;;;;;;;;4359914;32;20513;-85
2022/07/13 01:29:05;;;;;;;3.53;1.40;;;;;;;;;;4359823;32;20604;-83
2022/07/13 01:31:39;;;;;;;8.50;1.42;;;;;;;;;;4360087;32;20656;-84
2022/07/13 01:34:06;;;;;;;1.83;0.90;;;;;;;;;;4359941;32;20614;-84
2022/07/13 01:36:33;;;;;;;2.87;1.12;;;;;;;;;;4359702;32;20741;-84
2022/07/13 01:38:59;;;;;;;3.58;1.42;;;;;;;;;;4359854;32;20516;-85
2022/07/13 01:41:28;;;;;;;2.92;1.67;;;;;;;;;;4359906;32;20310;-85
2022/07/13 01:43:54;;;;;;;2.40;1.45;;;;;;;;;;4359856;32;20607;-90
2022/07/13 01:46:20;;;;;;;5.30;1.40;;;;;;;;;;4360096;32;20558;-93
2022/07/13 01:48:46;;;;;;;2.35;1.62;;;;;;;;;;4360180;32;20191;-84
2022/07/13 01:51:11;;;;;;;2.53;1.37;;;;;;;;;;4358486;32;20227;-91
2022/07/13 01:53:37;;;;;;;2.97;1.92;;;;;;;;;;4359722;32;20208;-84
2022/07/13 01:56:03;;;;;;;2.92;1.37;;;;;;;;;;4346400;32;20217;-84
2022/07/13 01:58:29;;;;;;;3.85;1.73;;;;;;;;;;4360090;32;20593;-92
2022/07/13 02:00:58;;;;;;;5.65;1.70;;;;;;;;;;4345719;32;20319;-84
2022/07/13 02:03:24;;;;;;;1.98;1.30;;;;;;;;;;4359347;32;20680;-84
2022/07/13 02:05:53;;;;;;;5.30;2.00;;;;;;;;;;4359730;32;20649;-84
2022/07/13 02:08:19;;;;;;;2.22;1.45;;;;;;;;;;4360006;32;20543;-84
2022/07/13 02:10:46;;;;;;;5.93;1.70;;;;;;;;;;4334159;32;20341;-93
2022/07/13 02:13:12;;;;;;;4.78;1.50;;;;;;;;;;4360081;32;20478;-91
2022/07/13 02:15:38;;;;;;;4.30;1.80;;;;;;;;;;4359713;32;20604;-85
2022/07/13 02:18:05;;;;;;;3.80;2.00;;;;;;;;;;4359505;32;20572;-84
2022/07/13 02:20:31;;;;;;;3.87;1.90;;;;;;;;;;4359600;33;20627;-84
2022/07/13 02:22:57;;;;;;;3.67;2.08;;;;;;;;;;4359477;33;20222;-84
2022/07/13 02:25:22;;;;;;;3.95;2.28;;;;;;;;;;4359419;33;20273;-84
2022/07/13 02:27:49;;;;;;;6.85;2.10;;;;;;;;;;4346303;33;20223;-84
2022/07/13 02:30:15;;;;;;;4.43;2.37;;;;;;;;;;4359891;33;20474;-84
2022/07/13 02:32:42;;;;;;;5.75;2.40;;;;;;;;;;4359398;33;20624;-83
2022/07/13 02:35:10;;;;;;;5.78;2.40;;;;;;;;;;4345886;33;20663;-84
2022/07/13 02:37:36;;;;;;;2.58;2.10;;;;;;;;;;4345939;33;20572;-85
2022/07/13 02:40:04;;;;;;;8.27;2.45;;;;;;;;;;4358949;33;20657;-84
2022/07/13 02:42:30;;;;;;;10.07;3.03;;;;;;;;;;4359426;33;20571;-83
2022/07/13 02:44:56;;;;;;;8.00;3.20;;;;;;;;;;4333323;33;20718;-87
2022/07/13 02:47:22;;;;;;;12.10;3.17;;;;;;;;;;4346131;33;20688;-85
2022/07/13 02:49:48;;;;;;;12.80;4.90;;;;;;;;;;4358797;33;20215;-86
2022/07/13 02:52:14;;;;;;;8.50;4.05;;;;;;;;;;4345627;33;20544;-92
2022/07/13 02:54:40;;;;;;;10.48;4.28;;;;;;;;;;4358937;33;20662;-87
2022/07/13 02:57:06;;;;;;;16.23;4.50;;;;;;;;;;4359492;33;20219;-86
2022/07/13 02:59:33;;;;;;;5.80;3.50;;;;;;;;;;4359281;33;20278;-87
2022/07/13 03:01:59;;;;;;;9.93;3.20;;;;;;;;;;4346003;32;20597;-86
2022/07/13 03:04:25;;;;;;;3.72;2.42;;;;;;;;;;4362132;32;20535;-86
2022/07/13 03:06:51;;;;;;;6.35;2.42;;;;;;;;;;4348847;32;20652;-92
2022/07/13 03:09:18;;;;;;;8.02;1.98;;;;;;;;;;4361980;32;20586;-86
2022/07/13 03:11:44;;;;;;;5.75;2.45;;;;;;;;;;4361677;32;20656;-87
2022/07/13 03:14:11;;;;;;;7.18;1.90;;;;;;;;;;4361863;32;20186;-89
2022/07/13 03:16:37;;;;;;;3.12;1.60;;;;;;;;;;4361651;32;20710;-86
2022/07/13 03:19:03;;;;;;;7.53;1.70;;;;;;;;;;4362045;32;20274;-91
2022/07/13 03:21:29;;;;;;;5.25;2.53;;;;;;;;;;4362014;32;20619;-85
2022/07/13 03:23:58;;;;;;;3.92;2.45;;;;;;;;;;4361713;32;20285;-87
2022/07/13 03:26:24;;;;;;;4.28;2.28;;;;;;;;;;4361756;32;20501;-86
2022/07/13 03:28:50;;;;;;;4.30;1.90;;;;;;;;;;4361860;32;20532;-87
2022/07/13 03:31:16;;;;;;;7.57;3.42;;;;;;;;;;4360475;32;20218;-87
2022/07/13 03:33:42;;;;;;;7.35;2.83;;;;;;;;;;4360709;32;20595;-87
2022/07/13 03:36:08;;;;;;;7.80;2.85;;;;;;;;;;4361489;32;20227;-85
2022/07/13 03:38:35;;;;;;;6.00;2.47;;;;;;;;;;4361836;32;20596;-92
2022/07/13 03:41:01;;;;;;;5.03;2.22;;;;;;;;;;4361567;32;20612;-86
2022/07/13 03:43:27;;;;;;;10.63;2.50;;;;;;;;;;4348607;32;20511;-86
2022/07/13 03:45:53;;;;;;;6.45;2.45;;;;;;;;;;4361451;32;20301;-92
2022/07/13 03:48:19;;;;;;;7.43;3.12;;;;;;;;;;4348517;32;20455;-85
2022/07/13 03:50:46;;;;;;;4.82;2.80;;;;;;;;;;4364505;32;20688;-86
2022/07/13 03:53:12;;;;;;;5.85;2.40;;;;;;;;;;4368967;32;20527;-86
2022/07/13 03:55:39;;;;;;;4.85;2.20;;;;;;;;;;4366585;32;20214;-85
2022/07/13 03:58:05;;;;;;;9.60;2.85;;;;;;;;;;4366781;32;20571;-86
2022/07/13 04:00:32;;;;;;;8.15;2.83;;;;;;;;;;4364979;32;20226;-84
2022/07/13 04:02:59;;;;;;;10.45;3.37;;;;;;;;;;4355358;32;20155;-84
2022/07/13 04:05:27;;;;;;;11.73;3.67;;;;;;;;;;4348746;32;20651;-85
2022/07/13 04:07:52;;;;;;;8.32;4.28;;;;;;;;;;4362127;32;20787;-84
2022/07/13 04:10:19;;;;;;;5.15;3.33;;;;;;;;;;4347487;32;20226;-85
2022/07/13 04:12:49;;;;;;;5.72;3.25;;;;;;;;;;4346964;32;20579;-85
2022/07/13 04:15:15;;;;;;;7.28;3.37;;;;;;;;;;4361460;32;20571;-85
2022/07/13 04:17:42;;;;;;;5.18;3.22;;;;;;;;;;4361134;32;20576;-84
2022/07/13 04:20:10;;;;;;;6.97;3.25;;;;;;;;;;4347693;32;20594;-83
2022/07/13 04:22:37;;;;;;;9.48;3.03;;;;;;;;;;4351180;32;20458;-83
2022/07/13 04:25:03;;;;;;;6.62;3.70;;;;;;;;;;4364744;32;20596;-83
2022/07/13 04:27:29;;;;;;;5.78;3.70;;;;;;;;;;4348839;32;20623;-84
2022/07/13 04:29:56;;;;;;;9.90;5.47;;;;;;;;;;4350765;32;20678;-90
2022/07/13 04:32:23;;;;;;;13.43;5.30;;;;;;;;;;4364267;32;20584;-82
2022/07/13 04:34:50;;;;;;;5.87;4.50;;;;;;;;;;4347593;32;20627;-82
2022/07/13 04:37:17;;;;;;;9.15;4.18;;;;;;;;;;4347545;32;20592;-82
2022/07/13 04:39:44;;;;;;;8.43;4.30;;;;;;;;;;4359738;32;20641;-84
2022/07/13 04:42:14;;;;;;;7.47;3.30;;;;;;;;;;4364325;32;20253;-86
2022/07/13 04:44:42;;;;;;;6.50;3.58;;;;;;;;;;4364224;32;20518;-83
2022/07/13 04:47:08;;;;;;;4.28;3.17;;;;;;;;;;4346974;32;20568;-84
2022/07/13 04:49:34;;;;;;;4.82;2.72;;;;;;;;;;4362745;32;20187;-83
2022/07/13 04:52:00;;;;;;;8.60;2.70;;;;;;;;;;4361928;32;20236;-89
2022/07/13 04:54:26;;;;;;;6.45;3.03;;;;;;;;;;4361258;32;20534;-83
2022/07/13 04:56:52;;;;;;;8.35;4.15;;;;;;;;;;4359851;32;20301;-83
2022/07/13 04:59:18;;;;;;;8.18;4.22;;;;;;;;;;4359183;32;20655;-83
2022/07/13 05:01:45;;;;;;;17.55;4.70;;;;;;;;;;4359707;32;20240;-83
2022/07/13 05:04:11;;;;;;;9.27;3.87;;;;;;;;;;4346827;32;20606;-84
2022/07/13 05:06:37;;;;;;;5.35;4.05;;;;;;;;;;4359795;32;20621;-83
2022/07/13 05:09:05;;;;;;;4.82;3.05;;;;;;;;;;4360036;32;20262;-83
2022/07/13 05:11:33;;;;;;;7.47;4.75;;;;;;;;;;4359713;32;20736;-82
2022/07/13 05:13:58;;;;;;;6.50;3.92;;;;;;;;;;4359764;32;20187;-81
2022/07/13 05:16:24;;;;;;;9.23;3.20;;;;;;;;;;4346187;32;20307;-81
2022/07/13 05:18:51;;;;;;;15.77;3.47;;;;;;;;;;4359741;32;20244;-82
2022/07/13 05:21:17;;;;;;;6.45;2.90;;;;;;;;;;4358462;32;20702;-81
2022/07/13 05:23:43;;;;;;;7.78;3.47;;;;;;;;;;4358314;32;20669;-81
2022/07/13 05:26:09;;;;;;;9.13;2.67;;;;;;;;;;4359014;32;20663;-82
2022/07/13 05:28:35;;;;;;;3.95;2.65;;;;;;;;;;4359479;32;20379;-81
2022/07/13 05:31:01;;;;;;;11.68;2.83;;;;;;;;;;4359304;32;20276;-80
2022/07/13 05:33:27;;;;;;;7.28;2.75;;;;;;;;;;4345748;32;20242;-82
2022/07/13 05:35:52;;;;;;;7.97;2.72;;;;;;;;;;4359365;32;20289;-82
2022/07/13 05:38:18;;;;;;;5.37;4.00;;;;;;;;;;4359533;32;20274;-81
2022/07/13 05:40:46;;;;;;;9.38;4.75;;;;;;;;;;4358994;32;20654;-82
2022/07/13 05:43:12;;;;;;;18.02;5.30;;;;;;;;;;4359154;32;20643;-82
2022/07/13 05:45:38;;;;;;;15.50;5.85;;;;;;;;;;4358869;32;20652;-83
2022/07/13 05:48:04;;;;;;;16.02;5.05;;;;;;;;;;4358665;32;20313;-83
2022/07/13 05:50:30;;;;;;;15.75;5.15;;;;;;;;;;4357737;32;20237;-83
2022/07/13 05:52:57;;;;;;;8.35;3.90;;;;;;;;;;4358972;32;20580;-82
2022/07/13 05:55:22;;;;;;;42.25;12.10;;;;;;;;;;4357929;32;20722;-83
2022/07/13 05:57:48;;;;;;;11.63;4.62;;;;;;;;;;4345754;32;20301;-82
2022/07/13 06:00:14;;;;;;;5.28;3.42;;;;;;;;;;4359089;32;20205;-82
2022/07/13 06:02:41;;;;;;;6.87;3.65;;;;;;;;;;4359023;32;20576;-82
2022/07/13 06:05:08;;;;;;;29.60;8.10;;;;;;;;;;4345543;32;20618;-83
2022/07/13 06:07:34;;;;;;;14.70;9.23;;;;;;;;;;4358932;32;20536;-83
2022/07/13 06:10:01;;;;;;;10.15;4.65;;;;;;;;;;4359030;32;20265;-85
2022/07/13 06:12:28;;;;;;;6.68;4.35;;;;;;;;;;4358528;32;20608;-83
2022/07/13 06:14:54;;;;;;;11.00;4.00;;;;;;;;;;4345056;32;20555;-90
2022/07/13 06:17:23;;;;;;;7.32;3.47;;;;;;;;;;4358985;32;20578;-80
2022/07/13 06:19:49;;;;;;;6.72;3.17;;;;;;;;;;4358656;32;20624;-83
2022/07/13 06:22:16;;;;;;;5.03;3.03;;;;;;;;;;4358674;33;20555;-82
2022/07/13 06:24:43;;;;;;;5.65;3.35;;;;;;;;;;4359179;33;20635;-89
2022/07/13 06:27:09;;;;;;;8.75;4.03;;;;;;;;;;4358698;33;20616;-82
2022/07/13 06:29:35;;;;;;;8.65;3.05;;;;;;;;;;4358873;33;20190;-82
2022/07/13 06:32:02;;;;;;;5.78;2.58;;;;;;;;;;4345255;33;20611;-90
2022/07/13 06:34:28;;;;;;;6.97;3.00;;;;;;;;;;4345162;33;20560;-83
2022/07/13 06:36:53;;;;;;;5.87;3.28;;;;;;;;;;4345578;32;20287;-83
2022/07/13 06:39:19;;;;;;;8.60;3.22;;;;;;;;;;4362020;32;20256;-82
2022/07/13 06:41:45;;;;;;;7.60;2.53;;;;;;;;;;4348431;32;20712;-82
2022/07/13 06:44:12;;;;;;;7.65;2.62;;;;;;;;;;4361492;32;20228;-83
2022/07/13 06:46:38;;;;;;;8.10;3.00;;;;;;;;;;4361703;32;20602;-83
2022/07/13 06:49:04;;;;;;;5.85;2.53;;;;;;;;;;4362066;32;20183;-83
2022/07/13 06:51:30;;;;;;;12.65;3.67;;;;;;;;;;4361499;32;20249;-83
2022/07/13 06:53:57;;;;;;;10.52;3.10;;;;;;;;;;4348344;32;20565;-85
2022/07/13 06:56:23;;;;;;;4.30;2.30;;;;;;;;;;4361266;32;20665;-86
2022/07/13 06:58:49;;;;;;;13.70;4.53;;;;;;;;;;4348055;32;20230;-83
2022/07/13 07:01:15;;;;;;;5.37;3.30;;;;;;;;;;4361424;32;20529;-83
2022/07/13 07:03:41;;;;;;;4.97;2.45;;;;;;;;;;4348036;32;20585;-82
2022/07/13 07:06:07;;;;;;;7.45;2.75;;;;;;;;;;4347967;32;20575;-88
2022/07/13 07:08:34;;;;;;;3.58;1.65;;;;;;;;;;4348054;32;20614;-82
2022/07/13 07:11:00;;;;;;;5.20;1.70;;;;;;;;;;4361177;32;20661;-82
2022/07/13 07:13:26;;;;;;;2.92;1.85;;;;;;;;;;4361019;32;20214;-82
2022/07/13 07:15:52;;;;;;;4.22;1.87;;;;;;;;;;4347607;32;20301;-83
2022/07/13 07:18:21;;;;;;;4.22;1.25;;;;;;;;;;4335702;32;20608;-86
2022/07/13 07:20:48;;;;;;;9.25;1.87;;;;;;;;;;4361615;32;20671;-83
2022/07/13 07:23:14;;;;;;;7.47;2.40;;;;;;;;;;4360880;32;20591;-84
2022/07/13 07:25:40;;;;;;;3.97;1.80;;;;;;;;;;4360351;32;20644;-84
2022/07/13 07:28:07;;;;;;;7.30;1.52;;;;;;;;;;4361501;32;20677;-84
2022/07/13 07:30:33;;;;;;;4.00;1.40;;;;;;;;;;4347532;32;20726;-80
2022/07/13 07:32:59;;;;;;;3.67;1.27;;;;;;;;;;4361282;32;20218;-82
2022/07/13 07:35:25;;;;;;;3.70;1.60;;;;;;;;;;4347613;32;20647;-82
2022/07/13 07:37:51;;;;;;;1.87;1.40;;;;;;;;;;4359020;32;20564;-82
2022/07/13 07:40:17;;;;;;;4.12;1.17;;;;;;;;;;4361031;32;20258;-82
2022/07/13 07:42:44;;;;;;;4.93;2.40;;;;;;;;;;4360685;32;20282;-83
2022/07/13 07:45:11;;;;;;;4.07;1.23;;;;;;;;;;4360984;32;20603;-82
2022/07/13 07:47:39;;;;;;;12.02;1.20;;;;;;;;;;4360465;32;20551;-88
2022/07/13 07:50:07;;;;;;;8.27;2.47;;;;;;;;;;4360717;32;20594;-89
2022/07/13 07:52:33;;;;;;;1.83;0.90;;;;;;;;;;4347288;32;20685;-89
2022/07/13 07:54:59;;;;;;;2.85;1.05;;;;;;;;;;4361035;32;20516;-82
2022/07/13 07:57:25;;;;;;;6.40;1.23;;;;;;;;;;4360639;32;20214;-83
2022/07/13 07:59:51;;;;;;;5.93;1.02;;;;;;;;;;4360711;32;20595;-82
2022/07/13 08:02:17;;;;;;;3.35;0.98;;;;;;;;;;4347588;32;20513;-82
2022/07/13 08:04:45;;;;;;;1.52;0.80;;;;;;;;;;4359507;32;20575;-87
2022/07/13 08:07:11;;;;;;;1.67;0.90;;;;;;;;;;4360867;32;20604;-82
2022/07/13 08:09:38;;;;;;;1.52;0.88;;;;;;;;;;4335004;32;20584;-88
2022/07/13 08:12:04;;;;;;;2.45;0.85;;;;;;;;;;4360892;32;20497;-82
2022/07/13 08:14:31;;;;;;;2.05;0.90;;;;;;;;;;4334840;32;20611;-88
2022/07/13 08:16:59;;;;;;;2.97;0.80;;;;;;;;;;4348703;32;20654;-82
2022/07/13 08:19:26;;;;;;;6.30;1.23;;;;;;;;;;4347395;32;20612;-82
2022/07/13 08:21:52;;;;;;;3.40;1.12;;;;;;;;;;4346560;32;20691;-83
2022/07/13 08:24:18;;;;;;;4.97;0.80;;;;;;;;;;4360436;32;20592;-84
2022/07/13 08:26:47;;;;;;;3.17;1.00;;;;;;;;;;4360643;32;20252;-82
2022/07/13 08:29:13;;;;;;;2.08;0.85;;;;;;;;;;4347036;32;20774;-82
2022/07/13 08:31:39;;;;;;;2.45;0.80;;;;;;;;;;4360593;32;20588;-82
2022/07/13 08:39:34;;;;;;;3.80;0.90;;;;;;;;;;4360708;32;20284;-89
2022/07/13 08:42:00;;;;;;;2.28;0.70;;;;;;;;;;4359307;32;20541;-88
2022/07/13 08:44:26;;;;;;;2.30;1.17;;;;;;;;;;4360524;32;20216;-82
2022/07/13 08:46:52;;;;;;;1.73;0.88;;;;;;;;;;4360573;32;20599;-87
2022/07/13 08:49:19;;;;;;;1.65;0.90;;;;;;;;;;4360195;32;20493;-82
2022/07/13 08:51:47;;;;;;;1.42;0.80;;;;;;;;;;4360544;32;20558;-82
2022/07/13 08:54:14;;;;;;;1.90;0.80;;;;;;;;;;4359828;32;20544;-82
2022/07/13 08:56:41;;;;;;;1.85;0.70;;;;;;;;;;4359994;32;20582;-82
2022/07/13 08:59:07;;;;;;;3.35;0.80;;;;;;;;;;4359576;32;20549;-82
2022/07/13 09:01:34;;;;;;;1.75;1.00;;;;;;;;;;4359326;32;20788;-83
2022/07/13 09:04:02;;;;;;;5.90;0.98;;;;;;;;;;4360059;32;20571;-82
2022/07/13 09:06:49;;;;;;;2.00;0.93;;;;;;;;;;4359824;32;20230;-89
2022/07/13 09:09:32;;;;;;;1.90;1.20;;;;;;;;;;4346800;32;20474;-82
2022/07/13 09:12:23;;;;;;;3.90;0.77;;;;;;;;;;4359674;32;20609;-83
2022/07/13 09:15:15;;;;;;;4.55;0.82;;;;;;;;;;4354106;32;20270;-84
2022/07/13 09:17:43;;;;;;;1.50;0.90;;;;;;;;;;4357802;32;20582;-87
2022/07/13 09:20:11;;;;;;;1.15;1.02;;;;;;;;;;4359878;32;20540;-81
2022/07/13 09:22:58;;;;;;;3.37;1.17;;;;;;;;;;4346697;32;20594;-82
2022/07/13 09:25:37;;;;;;;1.27;0.77;;;;;;;;;;4346233;32;20575;-82
2022/07/13 09:28:16;;;;;;;1.58;0.73;;;;;;;;;;4346100;32;20676;-82
2022/07/13 09:31:01;;;;;;;2.28;0.90;;;;;;;;;;4298949;33;20335;-82
2022/07/13 09:33:34;;;;;;;1.30;0.90;;;;;;;;;;4298714;33;20593;-85
2022/07/13 09:36:11;;;;;;;4.90;1.00;;;;;;;;;;4298948;33;20495;-82
2022/07/13 09:38:42;;;;;;;1.85;0.77;;;;;;;;;;4298451;33;20611;-83
2022/07/13 09:41:22;;;;;;;2.50;0.80;;;;;;;;;;4298870;33;20598;-83
2022/07/13 09:46:51;;;;;;;1.50;0.57;;;;;;;;;;4299017;33;20255;-82
2022/07/13 09:49:18;;;;;;;1.95;0.82;;;;;;;;;;4298748;33;20668;-88
2022/07/13 09:51:45;;;;;;;5.47;0.80;;;;;;;;;;4298760;33;20845;-83
2022/07/13 09:54:12;;;;;;;2.72;0.95;;;;;;;;;;4298150;33;20669;-82
2022/07/13 09:56:47;;;;;;;3.10;0.80;;;;;;;;;;4298718;33;20617;-88
2022/07/13 09:59:14;;;;;;;1.92;0.85;;;;;;;;;;4298367;33;20924;-82
2022/07/13 10:01:40;;;;;;;2.60;1.00;;;;;;;;;;4322197;32;20609;-82
2022/07/13 10:04:08;;;;;;;2.78;1.20;;;;;;;;;;4359010;32;20564;-83
2022/07/13 10:06:34;;;;;;;7.45;1.00;;;;;;;;;;4359221;32;20528;-84
2022/07/13 10:09:00;;;;;;;2.85;1.30;;;;;;;;;;4359115;32;20597;-82
2022/07/13 10:11:27;;;;;;;3.40;0.60;;;;;;;;;;4345532;32;20629;-83
2022/07/13 10:13:55;;;;;;;2.47;0.95;;;;;;;;;;4358968;32;20632;-89
2022/07/13 10:16:21;;;;;;;0.70;0.60;;;;;;;;;;4359022;32;20592;-83
2022/07/13 10:18:48;;;;;;;4.95;1.27;;;;;;;;;;4345406;32;20559;-81
2022/07/13 10:21:23;;;;;;;1.05;0.65;;;;;;;;;;4359244;32;20647;-83
2022/07/13 10:23:50;;;;;;;2.20;0.77;;;;;;;;;;4358961;33;20602;-88
2022/07/13 10:26:24;;;;;;;1.25;0.75;;;;;;;;;;4357631;33;20681;-83
2022/07/13 10:29:09;;;;;;;1.83;0.90;;;;;;;;;;4358797;33;20635;-89
2022/07/13 10:31:39;;;;;;;2.17;0.62;;;;;;;;;;4359530;33;20596;-89
2022/07/13 10:34:07;;;;;;;6.50;1.35;;;;;;;;;;4358863;33;20564;-82
2022/07/13 10:36:51;;;;;;;0.93;0.70;;;;;;;;;;4358887;33;20748;-83
2022/07/13 10:39:19;;;;;;;3.42;0.55;;;;;;;;;;4359072;33;20621;-83
2022/07/13 10:42:01;;;;;;;1.73;0.80;;;;;;;;;;4358767;33;20555;-83
2022/07/13 10:44:37;;;;;;;4.03;0.88;;;;;;;;;;4358923;33;20544;-88
2022/07/13 10:47:08;;;;;;;1.05;0.70;;;;;;;;;;4358531;33;20728;-83
2022/07/13 10:49:37;;;;;;;5.75;1.85;;;;;;;;;;4358697;33;20595;-84
2022/07/13 10:52:26;;;;;;;3.12;0.93;;;;;;;;;;4358643;33;20717;-89
2022/07/13 10:57:31;;;;;;;0.73;0.65;;;;;;;;;;4358842;33;20619;-83
2022/07/13 11:00:03;;;;;;;1.95;0.82;;;;;;;;;;4358955;33;20580;-83
2022/07/13 11:02:49;;;;;;;2.10;0.95;;;;;;;;;;4358659;33;20643;-83
2022/07/13 11:05:18;;;;;;;2.80;0.50;;;;;;;;;;4358377;33;20536;-82
2022/07/13 11:07:50;;;;;;;6.82;0.98;;;;;;;;;;4358529;33;20683;-89
2022/07/13 11:10:30;;;;;;;1.12;0.70;;;;;;;;;;4359091;33;20569;-83
2022/07/13 11:13:04;;;;;;;1.02;0.55;;;;;;;;;;4344984;33;20629;-83
2022/07/13 11:15:47;;;;;;;4.20;0.93;;;;;;;;;;4358652;33;20752;-82
2022/07/13 11:18:22;;;;;;;2.28;0.60;;;;;;;;;;4358342;33;20642;-88
2022/07/13 11:21:17;;;;;;;0.90;0.60;;;;;;;;;;4358592;33;20608;-83
2022/07/13 11:26:44;;;;;;;2.15;0.80;;;;;;;;;;4361833;32;20663;-82
2022/07/13 11:29:32;;;;;;;2.10;0.70;;;;;;;;;;4361289;32;20548;-82
2022/07/13 11:32:01;;;;;;;3.92;0.80;;;;;;;;;;4361417;32;20240;-82
2022/07/13 11:34:27;;;;;;;6.87;0.80;;;;;;;;;;4361402;32;20631;-82
2022/07/13 11:36:55;;;;;;;1.05;0.50;;;;;;;;;;4361150;32;20772;-83
2022/07/13 11:39:23;;;;;;;1.08;0.52;;;;;;;;;;4361298;32;20581;-83
2022/07/13 11:41:59;;;;;;;3.72;0.75;;;;;;;;;;4360714;32;20546;-84
2022/07/13 11:44:30;;;;;;;5.57;0.82;;;;;;;;;;4361122;32;20647;-83
2022/07/13 11:46:58;;;;;;;2.20;0.77;;;;;;;;;;4360856;32;20626;-83
2022/07/13 11:49:24;;;;;;;0.70;0.70;;;;;;;;;;4361049;32;20659;-83
2022/07/13 11:51:51;;;;;;;0.88;0.85;;;;;;;;;;4361168;32;20592;-82
2022/07/13 11:54:20;;;;;;;1.98;0.60;;;;;;;;;;4347665;32;20545;-83
2022/07/13 11:56:48;;;;;;;17.90;1.10;;;;;;;;;;4361025;32;20538;-89
2022/07/13 11:59:33;;;;;;;0.85;0.65;;;;;;;;;;4347176;32;20580;-89
2022/07/13 12:02:01;;;;;;;1.27;0.82;;;;;;;;;;4361220;32;20594;-82
2022/07/13 12:04:26;;;;;;;2.15;0.70;;;;;;;;;;4360742;32;20628;-83
2022/07/13 12:07:12;;;;;;;1.08;0.70;;;;;;;;;;4360563;32;20304;-83
2022/07/13 12:10:01;;;;;;;1.00;0.60;;;;;;;;;;4360659;32;20643;-88
2022/07/13 12:12:32;;;;;;;15.23;1.05;;;;;;;;;;4346967;32;20660;-85
2022/07/13 12:14:58;;;;;;;2.33;0.60;;;;;;;;;;4360820;32;20529;-89
2022/07/13 12:17:25;;;;;;;1.12;0.70;;;;;;;;;;4359847;32;20571;-82
2022/07/13 12:19:52;;;;;;;1.65;0.70;;;;;;;;;;4360588;32;20547;-83
2022/07/13 12:22:22;;;;;;;8.70;0.80;;;;;;;;;;4361222;32;20643;-88
2022/07/13 12:24:48;;;;;;;5.40;1.00;;;;;;;;;;4360917;32;20548;-83
2022/07/13 12:27:26;;;;;;;3.10;0.80;;;;;;;;;;4365566;32;20226;-88
2022/07/13 12:30:07;;;;;;;1.27;0.50;;;;;;;;;;4363549;32;20714;-82
2022/07/13 12:32:33;;;;;;;14.48;0.90;;;;;;;;;;4361450;32;20670;-82
2022/07/13 12:34:59;;;;;;;1.70;0.52;;;;;;;;;;4361521;32;20564;-82
2022/07/13 12:37:37;;;;;;;0.75;0.50;;;;;;;;;;4349590;32;20296;-83
2022/07/13 12:40:07;;;;;;;1.67;0.60;;;;;;;;;;4352634;32;20656;-89
2022/07/13 12:42:35;;;;;;;0.55;0.55;;;;;;;;;;4363223;32;20320;-82
2022/07/13 12:45:14;;;;;;;0.88;0.60;;;;;;;;;;4348451;32;20586;-83
2022/07/13 12:47:40;;;;;;;1.30;0.90;;;;;;;;;;4347031;32;20521;-82
2022/07/13 12:50:32;;;;;;;1.23;0.65;;;;;;;;;;4347280;32;20695;-83
2022/07/13 12:53:00;;;;;;;0.93;0.68;;;;;;;;;;4349713;32;20583;-83
2022/07/13 12:55:26;;;;;;;2.05;0.80;;;;;;;;;;4361591;32;20555;-87
2022/07/13 12:57:52;;;;;;;2.80;0.90;;;;;;;;;;4348895;32;20569;-82
2022/07/13 13:00:25;;;;;;;7.18;1.02;;;;;;;;;;4362042;32;20559;-83
2022/07/13 13:02:52;;;;;;;0.77;0.65;;;;;;;;;;4360150;32;20599;-83
2022/07/13 13:05:17;;;;;;;0.85;0.55;;;;;;;;;;4346869;32;20541;-84
2022/07/13 13:07:44;;;;;;;1.77;0.80;;;;;;;;;;4360469;32;20229;-82
2022/07/13 13:10:10;;;;;;;1.15;0.62;;;;;;;;;;4359798;32;20567;-82
2022/07/13 13:12:37;;;;;;;2.35;0.88;;;;;;;;;;4346586;32;20590;-83
2022/07/13 13:15:03;;;;;;;0.65;0.50;;;;;;;;;;4359768;32;20620;-83
2022/07/13 13:17:30;;;;;;;0.52;0.52;;;;;;;;;;4359925;32;20494;-82
2022/07/13 13:19:56;;;;;;;0.70;0.70;;;;;;;;;;4359560;32;20559;-82
2022/07/13 13:22:22;;;;;;;0.95;0.68;;;;;;;;;;4359789;32;20225;-83
2022/07/13 13:24:48;;;;;;;3.15;0.80;;;;;;;;;;4359672;32;20226;-82
2022/07/13 13:27:14;;;;;;;2.85;0.65;;;;;;;;;;4359715;32;20686;-83
2022/07/13 13:32:24;;;;;;;4.20;0.85;;;;;;;;;;4360132;32;20205;-87
2022/07/13 13:34:51;;;;;;;2.28;0.90;;;;;;;;;;4360164;32;20227;-82
2022/07/13 13:37:17;;;;;;;2.67;0.85;;;;;;;;;;4359735;32;20592;-89
2022/07/13 13:39:43;;;;;;;1.48;0.65;;;;;;;;;;4359043;32;20635;-83
2022/07/13 13:42:09;;;;;;;1.02;0.65;;;;;;;;;;4359455;32;20655;-83
2022/07/13 13:44:44;;;;;;;1.75;0.90;;;;;;;;;;4359285;32;20266;-81
2022/07/13 13:47:10;;;;;;;0.80;0.70;;;;;;;;;;4359953;32;20540;-84
2022/07/13 13:49:37;;;;;;;2.67;0.80;;;;;;;;;;4347222;32;20575;-85
2022/07/13 13:52:03;;;;;;;1.45;0.90;;;;;;;;;;4360646;32;20355;-83
2022/07/13 13:54:29;;;;;;;3.30;1.00;;;;;;;;;;4359842;32;20584;-83
2022/07/13 13:56:55;;;;;;;3.05;0.90;;;;;;;;;;4359492;32;20674;-83
2022/07/13 13:59:21;;;;;;;0.68;0.60;;;;;;;;;;4359543;32;20210;-83
2022/07/13 14:01:47;;;;;;;1.65;0.60;;;;;;;;;;4360316;32;20237;-83
2022/07/13 14:04:14;;;;;;;1.33;0.80;;;;;;;;;;4345981;32;20666;-82
2022/07/13 14:06:40;;;;;;;0.85;0.70;;;;;;;;;;4360340;32;20249;-82
2022/07/13 14:09:06;;;;;;;8.38;1.05;;;;;;;;;;4359741;32;20222;-83
2022/07/13 14:11:34;;;;;;;3.83;0.70;;;;;;;;;;4361561;32;20285;-83
2022/07/13 14:14:00;;;;;;;4.00;0.80;;;;;;;;;;4363676;32;20560;-84
2022/07/13 14:16:26;;;;;;;4.25;0.75;;;;;;;;;;4349371;32;20632;-81
2022/07/13 14:18:52;;;;;;;8.23;0.85;;;;;;;;;;4348901;32;20579;-81
2022/07/13 14:21:18;;;;;;;1.30;0.80;;;;;;;;;;4360709;32;20226;-83
2022/07/13 14:23:44;;;;;;;1.95;0.80;;;;;;;;;;4360378;32;20199;-82
2022/07/13 14:26:10;;;;;;;0.70;0.62;;;;;;;;;;4359963;33;20226;-82
2022/07/13 14:28:37;;;;;;;1.85;0.70;;;;;;;;;;4362229;33;20627;-84
2022/07/13 14:31:04;;;;;;;0.88;0.70;;;;;;;;;;4360574;33;20733;-89
2022/07/13 14:33:30;;;;;;;2.53;0.85;;;;;;;;;;4345991;33;20633;-84
2022/07/13 14:35:56;;;;;;;2.62;1.00;;;;;;;;;;4358975;33;20697;-84
2022/07/13 14:38:22;;;;;;;2.42;1.40;;;;;;;;;;4360509;33;20250;-83
2022/07/13 14:40:48;;;;;;;2.67;0.90;;;;;;;;;;4359500;33;20545;-83
2022/07/13 14:43:14;;;;;;;1.40;0.88;;;;;;;;;;4359149;33;20572;-83
2022/07/13 14:45:41;;;;;;;0.62;0.62;;;;;;;;;;4359547;33;20594;-84
2022/07/13 14:48:07;;;;;;;0.60;0.60;;;;;;;;;;4359491;33;20543;-85
2022/07/13 14:50:33;;;;;;;4.40;0.80;;;;;;;;;;4359198;33;20315;-82
2022/07/13 14:53:01;;;;;;;2.80;1.10;;;;;;;;;;4359143;33;20567;-82
2022/07/13 14:55:27;;;;;;;0.98;0.70;;;;;;;;;;4358663;33;20697;-82
2022/07/13 14:57:53;;;;;;;0.55;0.55;;;;;;;;;;4359666;32;20611;-81
2022/07/13 15:00:19;;;;;;;4.80;1.20;;;;;;;;;;4361128;32;20283;-81
2022/07/13 15:02:45;;;;;;;5.40;1.15;;;;;;;;;;4361881;32;20198;-82
2022/07/13 15:05:12;;;;;;;3.75;0.65;;;;;;;;;;4361762;32;20249;-87